Atlanta, Texas
Current Conditions -  °F | °C
As of 6:53 PM on Monday 24 Nov 2014 (Local Time) from KTXK Reporting Station
Clear Clear  
Wind Chill: 48°   Ceiling: Unl
Heat Index: 48°   Visibility: 10mi
Dew Point: 30°   Wind: 3mph
Humidity: 50%   Direction: 230°SW
Pressure: 30.06"   Gusts: NA
Location:  33.12°N, 94.17°W
Report Text: KTXK 250053Z 23003KT 10SM CLR 09/M01 A3006 RMK AO2 SLP178 T00891011
Loading
Personal Weather Stations






























Interactive Weather Map New forecast layout! Learn more

10-Day Weather Forecast

Advertisements
Track Severe Weather on mobile